Terminal Aerodrome Forecast
Issued by NWS

Home | Current Version | Previous Version | Graphics & Text | Print | Product List | Glossary On
Versions: 1 2 3 4 5 6 7 8 9 10 11 12 13 14 15 16 17 18
941
FTUS41 KCLE 181732
TAFFDY
TAF
KFDY 181732Z 1818/1918 00000KT P6SM VCSH SCT025 OVC080
      TEMPO 1819/1822 BKN025
     FM190300 06006KT P6SM SCT035 BKN060
     FM190900 VRB03KT 5SM BR SCT015 BKN035
     FM191400 VRB04KT P6SM SCT025 BKN035=

USA.gov is the U.S. government's official web portal to all federal, state and local government web resources and services.